Terminal Aerodrome Forecast
Issued by NWS Knoxville/Tri Cities, TN

Home | Current Version | Previous Version | Text Only | Print | Product List | Glossary On
Versions: 1 2 3 4 5 6 7 8 9 10 11 12
000
FTUS44 KMRX 260520
TAFCHA
TAF
KCHA 260520Z 2606/2706 18003KT P6SM VCSH SCT050 BKN100
     FM261000 VRB02KT 6SM BR SCT040 SCT080 BKN150
     FM261400 21003KT P6SM SCT050 SCT100 BKN150
     FM262000 22004KT P6SM VCTS SCT060CB BKN150
     FM270300 VRB02KT P6SM FEW080 BKN120=

USA.gov is the U.S. government's official web portal to all federal, state and local government web resources and services.